createdAt,value
2016-10-19T00:00:20.424Z,19.9
2016-10-19T00:01:20.405Z,19.97
2016-10-19T00:02:20.386Z,19.94
2016-10-19T00:03:20.373Z,19.94
2016-10-19T00:04:20.047Z,19.98
2016-10-19T00:05:20.342Z,19.94
2016-10-19T00:06:20.325Z,19.98
2016-10-19T00:07:20.303Z,19.89
2016-10-19T00:08:20.304Z,19.9
2016-10-19T00:09:19.962Z,20
2016-10-19T00:10:20.277Z,19.9
2016-10-19T00:11:20.244Z,19.92
2016-10-19T00:12:20.236Z,19.94
2016-10-19T00:13:19.891Z,19.95
2016-10-19T00:14:20.192Z,19.92
2016-10-19T00:15:20.224Z,19.85
2016-10-19T00:16:20.165Z,19.86
2016-10-19T00:17:19.829Z,19.92
2016-10-19T00:18:20.130Z,19.97
2016-10-19T00:19:19.797Z,19.89
2016-10-19T00:20:20.098Z,19.85
2016-10-19T00:21:20.068Z,19.85
2016-10-19T00:22:19.433Z,19.85
2016-10-19T00:23:20.044Z,19.87
2016-10-19T00:24:19.718Z,19.79
2016-10-19T00:25:20.015Z,19.82
2016-10-19T00:26:20.006Z,19.82
2016-10-19T00:27:19.977Z,19.83
2016-10-19T00:28:19.976Z,19.89
2016-10-19T00:29:19.956Z,19.85
2016-10-19T00:30:19.934Z,19.82
2016-10-19T00:31:19.915Z,19.83
2016-10-19T00:32:19.938Z,19.85
2016-10-19T00:33:19.881Z,19.86
2016-10-19T00:34:19.859Z,19.82
2016-10-19T00:35:19.858Z,19.83
2016-10-19T00:36:19.825Z,19.82
2016-10-19T00:37:19.820Z,19.87
2016-10-19T00:38:19.802Z,19.82
2016-10-19T00:39:19.788Z,19.86
2016-10-19T00:40:19.768Z,19.86
2016-10-19T00:41:19.432Z,19.82
2016-10-19T00:42:19.725Z,19.82
2016-10-19T00:43:19.723Z,19.85
2016-10-19T00:44:19.700Z,19.85
2016-10-19T00:45:19.381Z,19.85
2016-10-19T00:46:19.670Z,19.86
2016-10-19T00:47:19.020Z,19.83
2016-10-19T00:48:19.643Z,19.87
2016-10-19T00:49:19.627Z,19.85
2016-10-19T00:50:19.599Z,19.8
2016-10-19T00:51:19.591Z,19.83
2016-10-19T00:52:19.566Z,19.82
2016-10-19T00:53:19.593Z,19.83
2016-10-19T00:54:19.548Z,19.8
2016-10-19T00:55:19.522Z,19.79
2016-10-19T00:56:19.503Z,19.8
2016-10-19T00:57:19.176Z,19.83
2016-10-19T00:58:19.159Z,19.83
2016-10-19T00:59:19.461Z,19.83
2016-10-19T01:00:19.438Z,19.83
2016-10-19T01:01:19.421Z,19.85
2016-10-19T01:02:19.414Z,19.82
2016-10-19T01:03:19.401Z,19.85
2016-10-19T01:04:19.067Z,19.89
2016-10-19T01:05:19.360Z,19.89
2016-10-19T01:06:19.343Z,19.83
2016-10-19T01:07:19.323Z,19.85
2016-10-19T01:08:19.308Z,19.82
2016-10-19T01:09:19.295Z,19.86
2016-10-19T01:10:18.966Z,19.83
2016-10-19T01:11:19.263Z,19.82
2016-10-19T01:12:19.235Z,19.8
2016-10-19T01:13:19.223Z,19.82
2016-10-19T01:14:18.895Z,19.8
2016-10-19T01:15:19.194Z,19.83
2016-10-19T01:16:18.859Z,19.83
2016-10-19T01:17:18.845Z,19.85
2016-10-19T01:18:19.148Z,19.86
2016-10-19T01:19:18.817Z,19.82
2016-10-19T01:20:18.802Z,19.78
2016-10-19T01:21:19.099Z,19.85
2016-10-19T01:22:19.083Z,19.82
2016-10-19T01:23:19.068Z,19.9
2016-10-19T01:24:18.731Z,19.78
2016-10-19T01:25:19.034Z,19.78
2016-10-19T01:26:18.698Z,19.78
2016-10-19T01:27:19.000Z,19.79
2016-10-19T01:28:18.979Z,19.87
2016-10-19T01:29:18.965Z,19.8
2016-10-19T01:30:18.953Z,19.78
2016-10-19T01:31:18.930Z,19.76
2016-10-19T01:32:18.920Z,19.86
2016-10-19T01:33:18.906Z,19.76
2016-10-19T01:34:18.889Z,19.79
2016-10-19T01:35:18.863Z,19.8
2016-10-19T01:36:18.855Z,19.78
2016-10-19T01:37:18.835Z,19.79
2016-10-19T01:38:18.816Z,19.79
2016-10-19T01:39:18.803Z,19.8
2016-10-19T01:40:18.783Z,19.79
2016-10-19T01:41:18.773Z,19.82
2016-10-19T01:42:18.757Z,19.75
2016-10-19T01:43:18.772Z,19.83
2016-10-19T01:44:18.753Z,19.78
2016-10-19T01:45:18.392Z,19.76
2016-10-19T01:46:18.380Z,19.78
2016-10-19T01:47:18.669Z,19.78
2016-10-19T01:48:18.652Z,19.82
2016-10-19T01:49:18.639Z,19.78
2016-10-19T01:50:18.624Z,19.76
2016-10-19T01:51:18.600Z,19.79
2016-10-19T01:52:18.589Z,19.8
2016-10-19T01:53:18.576Z,19.82
2016-10-19T01:54:18.556Z,19.75
2016-10-19T01:55:18.225Z,19.83
2016-10-19T01:56:18.526Z,19.82
2016-10-19T01:57:18.196Z,19.72
2016-10-19T01:58:18.496Z,19.75
2016-10-19T01:59:18.478Z,19.79
2016-10-19T02:00:18.451Z,19.76
2016-10-19T02:01:18.446Z,19.71
2016-10-19T02:02:18.417Z,19.79
2016-10-19T02:03:18.412Z,19.72
2016-10-19T02:04:18.394Z,19.68
2016-10-19T02:05:18.372Z,19.7
2016-10-19T02:06:18.353Z,19.7
2016-10-19T02:07:18.337Z,19.67
2016-10-19T02:08:18.007Z,19.67
2016-10-19T02:09:18.308Z,19.7
2016-10-19T02:10:17.981Z,19.68
2016-10-19T02:11:18.280Z,19.7
2016-10-19T02:12:18.272Z,19.76
2016-10-19T02:13:18.247Z,19.62
2016-10-19T02:14:18.232Z,19.68
2016-10-19T02:15:17.904Z,19.76
2016-10-19T02:16:18.200Z,19.67
2016-10-19T02:17:18.173Z,19.78
2016-10-19T02:18:18.171Z,19.64
2016-10-19T02:19:18.150Z,19.68
2016-10-19T02:20:17.811Z,19.68
2016-10-19T02:21:18.112Z,19.67
2016-10-19T02:22:17.466Z,19.72
2016-10-19T02:23:18.085Z,19.65
2016-10-19T02:24:17.754Z,19.67
2016-10-19T02:25:18.059Z,19.67
2016-10-19T02:26:18.030Z,19.67
2016-10-19T02:27:18.012Z,19.64
2016-10-19T02:28:17.682Z,19.68
2016-10-19T02:29:17.664Z,19.8
2016-10-19T02:30:17.973Z,19.68
2016-10-19T02:31:17.944Z,19.68
2016-10-19T02:32:17.933Z,19.6
2016-10-19T02:33:17.915Z,19.64
2016-10-19T02:34:17.900Z,19.64
2016-10-19T02:35:17.569Z,19.67
2016-10-19T02:36:17.876Z,19.65
2016-10-19T02:37:17.849Z,19.68
2016-10-19T02:38:17.840Z,19.6
2016-10-19T02:39:17.509Z,19.68
2016-10-19T02:40:17.802Z,19.62
2016-10-19T02:41:17.788Z,19.71
2016-10-19T02:42:17.767Z,19.7
2016-10-19T02:43:17.758Z,19.76
2016-10-19T02:44:17.735Z,19.64
2016-10-19T02:45:17.718Z,19.71
2016-10-19T02:46:17.703Z,19.79
2016-10-19T02:47:17.372Z,19.68
2016-10-19T02:48:17.666Z,19.67
2016-10-19T02:49:17.651Z,19.67
2016-10-19T02:50:17.636Z,19.67
2016-10-19T02:51:17.621Z,19.76
2016-10-19T02:52:17.290Z,19.71
2016-10-19T02:53:17.619Z,19.75
2016-10-19T02:54:17.571Z,19.71
2016-10-19T02:55:17.558Z,19.7
2016-10-19T02:56:17.543Z,19.67
2016-10-19T02:57:17.212Z,19.8
2016-10-19T02:58:17.226Z,19.58
2016-10-19T02:59:17.174Z,19.64
2016-10-19T03:00:17.473Z,19.67
2016-10-19T03:01:17.143Z,19.65
2016-10-19T03:02:17.446Z,19.71
2016-10-19T03:03:17.433Z,19.64
2016-10-19T03:04:17.402Z,19.62
2016-10-19T03:05:17.399Z,19.68
2016-10-19T03:06:17.372Z,19.64
2016-10-19T03:07:17.356Z,19.71
2016-10-19T03:08:17.027Z,19.67
2016-10-19T03:09:17.328Z,19.67
2016-10-19T03:10:16.995Z,19.65
2016-10-19T03:11:17.296Z,19.65
2016-10-19T03:12:17.279Z,19.64
2016-10-19T03:13:17.257Z,19.62
2016-10-19T03:14:16.931Z,19.65
2016-10-19T03:15:17.223Z,19.64
2016-10-19T03:16:17.214Z,19.64
2016-10-19T03:17:17.195Z,19.64
2016-10-19T03:18:17.216Z,19.67
2016-10-19T03:19:17.165Z,19.62
2016-10-19T03:20:17.142Z,19.58
2016-10-19T03:21:17.129Z,19.7
2016-10-19T03:22:16.793Z,19.58
2016-10-19T03:23:17.096Z,19.6
2016-10-19T03:24:17.073Z,19.64
2016-10-19T03:25:17.062Z,19.67
2016-10-19T03:26:17.040Z,19.61
2016-10-19T03:27:17.040Z,19.58
2016-10-19T03:28:17.011Z,19.61
2016-10-19T03:29:16.994Z,19.7
2016-10-19T03:30:16.984Z,19.68
2016-10-19T03:31:16.653Z,19.6
2016-10-19T03:32:16.947Z,19.61
2016-10-19T03:33:16.927Z,19.67
2016-10-19T03:34:16.914Z,19.58
2016-10-19T03:35:16.937Z,19.61
2016-10-19T03:36:16.887Z,19.57
2016-10-19T03:37:16.864Z,19.62
2016-10-19T03:38:16.532Z,19.62
2016-10-19T03:39:16.522Z,19.61
2016-10-19T03:40:16.813Z,19.57
2016-10-19T03:41:16.802Z,19.58
2016-10-19T03:42:16.471Z,19.55
2016-10-19T03:43:16.762Z,19.61
2016-10-19T03:44:16.748Z,19.64
2016-10-19T03:45:16.725Z,19.67
2016-10-19T03:46:16.402Z,19.6
2016-10-19T03:47:16.389Z,19.6
2016-10-19T03:48:16.684Z,19.61
2016-10-19T03:49:16.353Z,19.58
2016-10-19T03:50:16.350Z,19.6
2016-10-19T03:51:16.638Z,19.65
2016-10-19T03:52:16.305Z,19.61
2016-10-19T03:53:16.629Z,19.62
2016-10-19T03:54:16.595Z,19.62
2016-10-19T03:55:16.253Z,19.62
2016-10-19T03:56:16.244Z,19.67
2016-10-19T03:57:16.535Z,19.58
2016-10-19T03:58:16.208Z,19.6
2016-10-19T03:59:16.504Z,19.61
2016-10-19T04:00:16.176Z,19.61
2016-10-19T04:01:16.475Z,19.68
2016-10-19T04:02:16.144Z,19.6
2016-10-19T04:03:16.434Z,19.64
2016-10-19T04:04:16.425Z,19.58
2016-10-19T04:05:16.408Z,19.6
2016-10-19T04:06:16.391Z,19.71
2016-10-19T04:07:16.370Z,19.75
2016-10-19T04:08:16.361Z,19.78
2016-10-19T04:09:16.338Z,19.79
2016-10-19T04:10:16.325Z,19.92
2016-10-19T04:11:16.303Z,19.94
2016-10-19T04:12:15.968Z,19.95
2016-10-19T04:13:16.269Z,19.94
2016-10-19T04:14:16.254Z,20.04
2016-10-19T04:15:15.923Z,20.2
2016-10-19T04:16:16.215Z,20.07
2016-10-19T04:17:15.894Z,20.13
2016-10-19T04:18:16.189Z,20.19
2016-10-19T04:19:16.177Z,20.19
2016-10-19T04:20:16.153Z,20.15
2016-10-19T04:21:16.129Z,20.22
2016-10-19T04:22:15.806Z,20.19
2016-10-19T04:23:15.797Z,20.19
2016-10-19T04:24:16.096Z,20.16
2016-10-19T04:25:16.075Z,20.3
2016-10-19T04:26:16.062Z,20.3
2016-10-19T04:27:16.038Z,20.22
2016-10-19T04:28:16.031Z,20.31
2016-10-19T04:29:16.004Z,20.31
2016-10-19T04:30:15.997Z,20.27
2016-10-19T04:31:16.002Z,20.31
2016-10-19T04:32:15.964Z,20.27
2016-10-19T04:33:15.975Z,20.33
2016-10-19T04:34:15.938Z,20.27
2016-10-19T04:35:15.915Z,20.26
2016-10-19T04:36:15.579Z,20.27
2016-10-19T04:37:15.883Z,20.27
2016-10-19T04:38:15.861Z,20.22
2016-10-19T04:39:15.848Z,20.27
2016-10-19T04:40:15.827Z,20.26
2016-10-19T04:41:15.812Z,20.27
2016-10-19T04:42:15.793Z,20.27
2016-10-19T04:43:15.781Z,20.25
2016-10-19T04:44:15.446Z,20.31
2016-10-19T04:45:15.425Z,20.23
2016-10-19T04:46:15.736Z,20.33
2016-10-19T04:47:15.716Z,20.26
2016-10-19T04:48:15.698Z,20.26
2016-10-19T04:49:15.680Z,20.4
2016-10-19T04:50:15.701Z,20.31
2016-10-19T04:51:15.352Z,20.37
2016-10-19T04:52:15.634Z,20.35
2016-10-19T04:53:15.647Z,20.4
2016-10-19T04:54:15.608Z,20.31
2016-10-19T04:55:15.271Z,20.3
2016-10-19T04:56:15.600Z,20.42
2016-10-19T04:57:15.237Z,20.48
2016-10-19T04:58:15.535Z,20.46
2016-10-19T04:59:15.519Z,20.44
2016-10-19T05:00:15.505Z,20.51
2016-10-19T05:01:15.172Z,20.5
2016-10-19T05:02:15.471Z,20.5
2016-10-19T05:03:15.451Z,20.54
2016-10-19T05:04:15.434Z,20.46
2016-10-19T05:05:15.429Z,20.51
2016-10-19T05:06:15.116Z,20.46
2016-10-19T05:07:15.391Z,20.51
2016-10-19T05:08:15.409Z,20.54
2016-10-19T05:09:15.360Z,20.51
2016-10-19T05:10:15.342Z,20.48
2016-10-19T05:11:15.326Z,20.48
2016-10-19T05:12:15.310Z,20.51
2016-10-19T05:13:15.291Z,20.53
2016-10-19T05:14:15.282Z,20.53
2016-10-19T05:15:14.947Z,20.53
2016-10-19T05:16:15.242Z,20.54
2016-10-19T05:17:15.280Z,20.48
2016-10-19T05:18:14.899Z,20.48
2016-10-19T05:19:15.194Z,20.48
2016-10-19T05:20:15.203Z,20.53
2016-10-19T05:21:15.187Z,20.53
2016-10-19T05:22:15.155Z,20.51
2016-10-19T05:23:15.130Z,20.51
2016-10-19T05:24:15.118Z,20.57
2016-10-19T05:25:15.097Z,20.53
2016-10-19T05:26:15.103Z,20.51
2016-10-19T05:27:15.102Z,20.48
2016-10-19T05:28:15.061Z,20.46
2016-10-19T05:29:14.754Z,20.51
2016-10-19T05:30:15.015Z,20.5
2016-10-19T05:31:15.035Z,20.5
2016-10-19T05:32:14.670Z,20.53
2016-10-19T05:33:14.973Z,20.53
2016-10-19T05:34:14.954Z,20.44
2016-10-19T05:35:14.934Z,20.51
2016-10-19T05:36:14.931Z,20.48
2016-10-19T05:37:14.910Z,20.53
2016-10-19T05:38:14.893Z,20.54
2016-10-19T05:39:14.877Z,20.61
2016-10-19T05:40:14.579Z,20.6
2016-10-19T05:41:14.847Z,20.61
2016-10-19T05:42:14.512Z,20.5
2016-10-19T05:43:14.804Z,20.58
2016-10-19T05:44:14.480Z,20.58
2016-10-19T05:45:14.774Z,20.58
2016-10-19T05:46:14.759Z,20.5
2016-10-19T05:47:14.744Z,20.57
2016-10-19T05:48:14.403Z,20.57
2016-10-19T05:49:14.721Z,20.57
2016-10-19T05:50:14.376Z,20.61
2016-10-19T05:51:14.677Z,20.5
2016-10-19T05:52:14.342Z,20.6
2016-10-19T05:53:14.643Z,20.46
2016-10-19T05:54:14.624Z,20.56
2016-10-19T05:55:14.624Z,20.57
2016-10-19T05:56:14.283Z,20.51
2016-10-19T05:57:14.576Z,20.5
2016-10-19T05:58:14.569Z,20.46
2016-10-19T05:59:14.547Z,20.57
2016-10-19T06:00:14.224Z,20.46
2016-10-19T06:01:14.522Z,20.57
2016-10-19T06:02:14.500Z,20.61
2016-10-19T06:03:14.483Z,20.6
2016-10-19T06:04:14.475Z,20.54
2016-10-19T06:05:14.138Z,20.57
2016-10-19T06:06:14.439Z,20.6
2016-10-19T06:07:14.416Z,20.6
2016-10-19T06:08:14.404Z,20.6
2016-10-19T06:09:14.396Z,20.6
2016-10-19T06:10:14.371Z,20.58
2016-10-19T06:11:14.361Z,20.63
2016-10-19T06:12:14.345Z,20.64
2016-10-19T06:13:14.335Z,20.58
2016-10-19T06:14:14.313Z,20.58
2016-10-19T06:15:14.294Z,20.57
2016-10-19T06:16:14.279Z,20.6
2016-10-19T06:17:14.261Z,20.61
2016-10-19T06:18:13.934Z,20.64
2016-10-19T06:19:13.600Z,20.61
2016-10-19T06:20:14.212Z,20.51
2016-10-19T06:21:14.205Z,20.61
2016-10-19T06:22:13.869Z,20.6
2016-10-19T06:23:14.160Z,20.58
2016-10-19T06:24:14.144Z,20.57
2016-10-19T06:25:14.140Z,20.56
2016-10-19T06:26:14.121Z,20.64
2016-10-19T06:27:13.781Z,20.61
2016-10-19T06:28:14.086Z,20.57
2016-10-19T06:29:13.757Z,20.57
2016-10-19T06:30:14.054Z,20.63
2016-10-19T06:31:13.718Z,20.61
2016-10-19T06:32:13.705Z,20.61
2016-10-19T06:33:14.002Z,20.57
2016-10-19T06:34:13.985Z,20.61
2016-10-19T06:35:13.698Z,20.64
2016-10-19T06:36:13.961Z,20.66
2016-10-19T06:37:13.941Z,20.66
2016-10-19T06:38:13.922Z,20.66
2016-10-19T06:39:13.909Z,20.73
2016-10-19T06:40:13.888Z,20.64
2016-10-19T06:41:13.561Z,20.68
2016-10-19T06:42:13.855Z,20.63
2016-10-19T06:43:13.846Z,20.71
2016-10-19T06:44:13.832Z,20.66
2016-10-19T06:45:13.816Z,20.66
2016-10-19T06:46:13.800Z,20.61
2016-10-19T06:47:13.777Z,20.73
2016-10-19T06:48:13.766Z,20.76
2016-10-19T06:49:13.445Z,20.71
2016-10-19T06:50:13.419Z,20.72
2016-10-19T06:51:13.394Z,20.75
2016-10-19T06:52:13.393Z,20.68
2016-10-19T06:53:13.371Z,20.75
2016-10-19T06:54:13.670Z,20.73
2016-10-19T06:55:13.657Z,20.75
2016-10-19T06:56:13.318Z,20.73
2016-10-19T06:57:13.631Z,20.75
2016-10-19T06:58:13.291Z,20.73
2016-10-19T06:59:13.586Z,20.71
2016-10-19T07:00:13.589Z,20.75
2016-10-19T07:01:13.555Z,20.73
2016-10-19T07:02:13.540Z,20.73
2016-10-19T07:03:13.528Z,20.71
2016-10-19T07:04:13.542Z,20.68
2016-10-19T07:05:13.492Z,20.81
2016-10-19T07:06:13.163Z,20.66
2016-10-19T07:07:13.468Z,20.81
2016-10-19T07:08:13.445Z,20.73
2016-10-19T07:09:13.429Z,20.73
2016-10-19T07:10:13.411Z,20.76
2016-10-19T07:11:13.080Z,20.33
2016-10-19T07:12:13.066Z,19.83
2016-10-19T07:13:13.044Z,19.46
2016-10-19T07:14:13.348Z,19.21
2016-10-19T07:15:13.330Z,19.25
2016-10-19T07:16:12.999Z,19.61
2016-10-19T07:17:13.312Z,19.82
2016-10-19T07:18:13.283Z,19.94
2016-10-19T07:19:13.279Z,20.19
2016-10-19T07:20:13.248Z,20.27
2016-10-19T07:21:13.229Z,20.38
2016-10-19T07:22:12.910Z,20.48
2016-10-19T07:23:12.884Z,20.48
2016-10-19T07:24:13.189Z,20.6
2016-10-19T07:25:12.549Z,20.61
2016-10-19T07:26:13.163Z,20.6
2016-10-19T07:27:12.514Z,20.63
2016-10-19T07:28:12.806Z,20.68
2016-10-19T07:29:13.108Z,20.66
2016-10-19T07:30:12.808Z,20.73
2016-10-19T07:31:12.757Z,20.76
2016-10-19T07:32:12.740Z,20.75
2016-10-19T07:33:13.050Z,20.75
2016-10-19T07:34:12.705Z,20.71
2016-10-19T07:35:13.030Z,20.75
2016-10-19T07:36:12.993Z,20.78
2016-10-19T07:37:12.990Z,20.76
2016-10-19T07:38:12.952Z,20.81
2016-10-19T07:39:12.951Z,20.79
2016-10-19T07:40:12.930Z,20.81
2016-10-19T07:41:12.916Z,20.83
2016-10-19T07:42:12.898Z,20.81
2016-10-19T07:43:12.879Z,20.79
2016-10-19T07:44:12.863Z,20.81
2016-10-19T07:45:12.854Z,20.81
2016-10-19T07:46:12.834Z,20.81
2016-10-19T07:47:12.501Z,20.85
2016-10-19T07:48:12.816Z,20.87
2016-10-19T07:49:12.789Z,20.75
2016-10-19T07:50:12.463Z,20.82
2016-10-19T07:51:12.440Z,20.83
2016-10-19T07:52:12.740Z,20.75
2016-10-19T07:53:12.722Z,20.73
2016-10-19T07:54:12.746Z,20.73
2016-10-19T07:55:12.709Z,20.75
2016-10-19T07:56:12.679Z,20.79
2016-10-19T07:57:12.659Z,20.78
2016-10-19T07:58:12.646Z,20.78
2016-10-19T07:59:12.636Z,20.75
2016-10-19T08:00:12.301Z,20.78
2016-10-19T08:01:12.278Z,20.76
2016-10-19T08:02:12.259Z,20.76
2016-10-19T08:03:12.563Z,20.75
2016-10-19T08:04:12.548Z,20.78
2016-10-19T08:05:12.214Z,20.81
2016-10-19T08:06:12.524Z,20.87
2016-10-19T08:07:12.510Z,20.9
2016-10-19T08:08:12.193Z,20.83
2016-10-19T08:09:12.504Z,20.91
2016-10-19T08:10:12.449Z,20.96
2016-10-19T08:11:12.430Z,20.91
2016-10-19T08:12:12.424Z,20.88
2016-10-19T08:13:12.083Z,20.88
2016-10-19T08:14:12.384Z,20.88
2016-10-19T08:15:12.370Z,20.76
2016-10-19T08:16:12.046Z,20.76
2016-10-19T08:17:12.339Z,20.76
2016-10-19T08:18:12.318Z,20.64
2016-10-19T08:19:12.307Z,20.79
2016-10-19T08:20:12.291Z,20.68
2016-10-19T08:21:12.275Z,20.64
2016-10-19T08:22:12.259Z,20.63
2016-10-19T08:23:12.241Z,20.66
2016-10-19T08:24:12.232Z,20.66
2016-10-19T08:25:12.219Z,20.63
2016-10-19T08:26:12.193Z,20.68
2016-10-19T08:27:12.192Z,20.72
2016-10-19T08:28:12.161Z,20.69
2016-10-19T08:29:12.145Z,20.66
2016-10-19T08:30:11.825Z,20.66
2016-10-19T08:31:12.115Z,20.61
2016-10-19T08:32:11.780Z,20.63
2016-10-19T08:33:11.768Z,20.64
2016-10-19T08:34:12.063Z,20.64
2016-10-19T08:35:11.738Z,20.68
2016-10-19T08:36:12.036Z,20.64
2016-10-19T08:37:12.021Z,20.66
2016-10-19T08:38:12.002Z,20.66
2016-10-19T08:39:11.983Z,20.69
2016-10-19T08:40:11.969Z,20.66
2016-10-19T08:41:11.950Z,20.73
2016-10-19T08:42:11.630Z,20.71
2016-10-19T08:43:11.931Z,20.63
2016-10-19T08:44:11.595Z,20.63
2016-10-19T08:45:11.580Z,20.69
2016-10-19T08:46:11.874Z,20.69
2016-10-19T08:47:11.856Z,20.64
2016-10-19T08:48:11.524Z,20.69
2016-10-19T08:49:11.517Z,20.82
2016-10-19T08:50:11.826Z,20.71
2016-10-19T08:51:11.797Z,20.79
2016-10-19T08:52:11.162Z,20.73
2016-10-19T08:53:11.758Z,20.78
2016-10-19T08:54:11.439Z,20.81
2016-10-19T08:55:11.737Z,20.73
2016-10-19T08:56:11.721Z,20.63
2016-10-19T08:57:11.387Z,20.75
2016-10-19T08:58:11.364Z,20.71
2016-10-19T08:59:11.669Z,20.78
2016-10-19T09:00:11.333Z,20.63
2016-10-19T09:01:11.630Z,20.68
2016-10-19T09:02:11.331Z,20.66
2016-10-19T09:03:11.600Z,20.68
2016-10-19T09:04:11.584Z,20.69
2016-10-19T09:05:11.580Z,20.72
2016-10-19T09:06:11.241Z,20.75
2016-10-19T09:07:11.544Z,20.64
2016-10-19T09:08:11.522Z,20.73
2016-10-19T09:09:11.847Z,20.68
2016-10-19T09:10:11.491Z,20.66
2016-10-19T09:11:11.477Z,20.66
2016-10-19T09:12:11.457Z,20.71
2016-10-19T09:13:10.811Z,20.76
2016-10-19T09:14:11.116Z,20.76
2016-10-19T09:15:11.415Z,20.79
2016-10-19T09:16:11.081Z,20.79
2016-10-19T09:17:11.416Z,20.78
2016-10-19T09:18:11.365Z,20.83
2016-10-19T09:19:11.342Z,20.78
2016-10-19T09:20:11.322Z,20.12
2016-10-19T09:21:11.306Z,19.32
2016-10-19T09:22:10.981Z,19.55
2016-10-19T09:23:11.279Z,19.75
2016-10-19T09:24:10.952Z,19.95
2016-10-19T09:25:11.251Z,20.19
2016-10-19T09:26:10.910Z,20.31
2016-10-19T09:27:11.215Z,20.51
2016-10-19T09:28:11.201Z,20.69
2016-10-19T09:29:11.183Z,20.64
2016-10-19T09:30:11.162Z,20.81
2016-10-19T09:31:11.155Z,20.72
2016-10-19T09:32:11.131Z,20.76
2016-10-19T09:33:11.120Z,20.76
2016-10-19T09:34:11.105Z,20.79
2016-10-19T09:35:11.079Z,20.85
2016-10-19T09:36:11.070Z,20.96
2016-10-19T09:37:11.065Z,20.85
2016-10-19T09:38:10.729Z,20.87
2016-10-19T09:39:11.024Z,20.88
2016-10-19T09:40:11.005Z,20.87
2016-10-19T09:41:10.983Z,20.87
2016-10-19T09:42:10.977Z,20.78
2016-10-19T09:43:10.967Z,20.81
2016-10-19T09:44:10.944Z,20.82
2016-10-19T09:45:10.611Z,20.76
2016-10-19T09:46:10.914Z,20.75
2016-10-19T09:47:10.903Z,20.76
2016-10-19T09:48:10.573Z,20.73
2016-10-19T09:49:10.872Z,20.81
2016-10-19T09:50:10.849Z,20.72
2016-10-19T09:51:10.836Z,20.72
2016-10-19T09:52:10.500Z,20.73
2016-10-19T09:53:10.808Z,20.75
2016-10-19T09:54:10.790Z,20.76
2016-10-19T09:55:10.767Z,20.83
2016-10-19T09:56:10.439Z,20.83
2016-10-19T09:57:10.738Z,20.82
2016-10-19T09:58:10.727Z,20.72
2016-10-19T09:59:10.714Z,20.79
2016-10-19T10:00:10.692Z,20.75
2016-10-19T10:01:10.353Z,20.72
2016-10-19T10:02:10.662Z,20.75
2016-10-19T10:03:10.638Z,20.81
2016-10-19T10:04:10.313Z,20.87
2016-10-19T10:05:10.615Z,20.81
2016-10-19T10:06:10.592Z,20.9
2016-10-19T10:07:10.590Z,20.88
2016-10-19T10:08:10.568Z,20.85
2016-10-19T10:09:10.563Z,20.96
2016-10-19T10:10:10.540Z,20.88
2016-10-19T10:11:10.519Z,20.9
2016-10-19T10:12:10.500Z,21.01
2016-10-19T10:13:10.492Z,20.98
2016-10-19T10:14:10.175Z,20.96
2016-10-19T10:15:10.138Z,21.03
2016-10-19T10:16:10.429Z,21.05
2016-10-19T10:17:10.125Z,20.97
2016-10-19T10:18:10.094Z,21.03
2016-10-19T10:19:10.384Z,21.05
2016-10-19T10:20:10.094Z,21.03
2016-10-19T10:21:10.056Z,21.06
2016-10-19T10:22:10.348Z,21.03
2016-10-19T10:23:10.340Z,21.01
2016-10-19T10:24:09.999Z,21.05
2016-10-19T10:25:10.300Z,21.01
2016-10-19T10:26:10.275Z,21.08
2016-10-19T10:27:10.265Z,20.97
2016-10-19T10:28:10.242Z,21
2016-10-19T10:29:10.221Z,20.98
2016-10-19T10:30:10.218Z,20.96
2016-10-19T10:31:10.185Z,21
2016-10-19T10:32:10.183Z,21.01
2016-10-19T10:33:09.842Z,21.03
2016-10-19T10:34:10.149Z,20.98
2016-10-19T10:35:09.821Z,20.98
2016-10-19T10:36:09.500Z,21
2016-10-19T10:37:10.108Z,21.05
2016-10-19T10:38:10.086Z,20.96
2016-10-19T10:39:09.785Z,21
2016-10-19T10:40:09.785Z,20.96
2016-10-19T10:41:10.038Z,20.94
2016-10-19T10:42:10.038Z,20.94
2016-10-19T10:43:10.092Z,20.96
2016-10-19T10:44:09.990Z,21
2016-10-19T10:45:09.979Z,20.97
2016-10-19T10:46:09.674Z,20.97
2016-10-19T10:47:09.949Z,20.98
2016-10-19T10:48:09.641Z,20.96
2016-10-19T10:49:09.926Z,20.93
2016-10-19T10:50:09.903Z,20.98
2016-10-19T10:51:09.897Z,20.9
2016-10-19T10:52:09.870Z,20.94
2016-10-19T10:53:09.535Z,21.03
2016-10-19T10:54:09.518Z,20.94
2016-10-19T10:55:09.816Z,20.93
2016-10-19T10:56:09.797Z,20.91
2016-10-19T10:57:09.472Z,20.94
2016-10-19T10:58:09.779Z,20.91
2016-10-19T10:59:09.116Z,20.94
2016-10-19T11:00:09.423Z,20.97
2016-10-19T11:01:09.728Z,20.9
2016-10-19T11:02:09.708Z,21
2016-10-19T11:03:09.726Z,20.97
2016-10-19T11:04:09.669Z,20.9
2016-10-19T11:05:09.688Z,20.87
2016-10-19T11:06:09.653Z,20.93
2016-10-19T11:07:09.310Z,21
2016-10-19T11:08:09.285Z,20.94
2016-10-19T11:09:09.587Z,20.88
2016-10-19T11:10:09.572Z,21.05
2016-10-19T11:11:09.564Z,20.85
2016-10-19T11:12:09.540Z,20.93
2016-10-19T11:13:09.214Z,20.87
2016-10-19T11:14:09.516Z,20.87
2016-10-19T11:15:09.177Z,21.01
2016-10-19T11:16:09.472Z,20.81
2016-10-19T11:17:09.151Z,20.83
2016-10-19T11:18:09.449Z,20.85
2016-10-19T11:19:09.437Z,20.82
2016-10-19T11:20:09.101Z,20.9
2016-10-19T11:21:08.778Z,20.97
2016-10-19T11:22:09.389Z,20.85
2016-10-19T11:23:09.369Z,20.87
2016-10-19T11:24:09.365Z,20.87
2016-10-19T11:25:09.335Z,20.96
2016-10-19T11:26:09.325Z,20.88
2016-10-19T11:27:08.997Z,20.93
2016-10-19T11:28:09.299Z,20.85
2016-10-19T11:29:09.273Z,20.97
2016-10-19T11:30:09.459Z,20.85
2016-10-19T11:31:09.245Z,20.94
2016-10-19T11:32:09.222Z,20.93
2016-10-19T11:33:09.217Z,20.97
2016-10-19T11:34:09.201Z,20.88
2016-10-19T11:35:09.189Z,20.87
2016-10-19T11:36:09.169Z,20.9
2016-10-19T11:37:09.159Z,20.94
2016-10-19T11:38:09.144Z,21
2016-10-19T11:39:09.154Z,20.96
2016-10-19T11:40:09.115Z,20.93
2016-10-19T11:41:08.778Z,20.91
2016-10-19T11:42:09.066Z,20.83
2016-10-19T11:43:09.054Z,20.9
2016-10-19T11:44:08.738Z,20.96
2016-10-19T11:45:09.034Z,21
2016-10-19T11:46:09.025Z,21.05
2016-10-19T11:47:08.994Z,21
2016-10-19T11:48:08.980Z,20.93
2016-10-19T11:49:08.335Z,20.91
2016-10-19T11:50:08.948Z,20.88
2016-10-19T11:51:08.931Z,20.93
2016-10-19T11:52:08.917Z,20.91
2016-10-19T11:53:08.582Z,20.88
2016-10-19T11:54:08.572Z,20.85
2016-10-19T11:55:08.867Z,20.83
2016-10-19T11:56:08.535Z,20.85
2016-10-19T11:57:08.854Z,20.93
2016-10-19T11:58:08.816Z,20.97
2016-10-19T11:59:08.804Z,20.97
2016-10-19T12:00:08.785Z,21.03
2016-10-19T12:01:08.459Z,20.98
2016-10-19T12:02:08.753Z,21
2016-10-19T12:03:08.741Z,20.98
2016-10-19T12:04:08.728Z,21.03
2016-10-19T12:05:08.432Z,20.96
2016-10-19T12:06:08.699Z,20.9
2016-10-19T12:07:08.679Z,20.93
2016-10-19T12:08:08.666Z,20.94
2016-10-19T12:09:08.660Z,20.97
2016-10-19T12:10:08.632Z,20.98
2016-10-19T12:11:08.301Z,20.96
2016-10-19T12:12:08.640Z,21
2016-10-19T12:13:08.260Z,20.96
2016-10-19T12:14:08.582Z,20.98
2016-10-19T12:15:08.588Z,20.97
2016-10-19T12:16:08.539Z,20.96
2016-10-19T12:17:08.527Z,20.98
2016-10-19T12:18:08.510Z,21
2016-10-19T12:19:08.485Z,21
2016-10-19T12:20:08.156Z,20.96
2016-10-19T12:21:08.462Z,20.97
2016-10-19T12:22:08.444Z,20.93
2016-10-19T12:23:08.426Z,20.98
2016-10-19T12:24:08.410Z,20.97
2016-10-19T12:25:08.083Z,20.98
2016-10-19T12:26:08.062Z,20.96
2016-10-19T12:27:08.689Z,20.93
2016-10-19T12:28:08.355Z,20.96
2016-10-19T12:29:08.334Z,20.96
2016-10-19T12:30:08.309Z,20.91
2016-10-19T12:31:08.305Z,21
2016-10-19T12:32:07.970Z,20.88
2016-10-19T12:33:08.287Z,20.93
2016-10-19T12:34:08.281Z,20.91
2016-10-19T12:35:07.919Z,20.9
2016-10-19T12:36:08.212Z,20.83
2016-10-19T12:37:08.199Z,20.87
2016-10-19T12:38:08.185Z,20.97
2016-10-19T12:39:08.168Z,20.97
2016-10-19T12:40:07.839Z,20.93
2016-10-19T12:41:08.140Z,20.91
2016-10-19T12:42:07.809Z,20.9
2016-10-19T12:43:08.108Z,20.93
2016-10-19T12:44:08.101Z,20.97
2016-10-19T12:45:08.070Z,20.98
2016-10-19T12:46:08.068Z,20.94
2016-10-19T12:47:07.736Z,20.96
2016-10-19T12:48:08.038Z,20.97
2016-10-19T12:49:08.021Z,21.01
2016-10-19T12:50:07.687Z,21
2016-10-19T12:51:07.992Z,21.06
2016-10-19T12:52:07.665Z,21
2016-10-19T12:53:07.667Z,21.03
2016-10-19T12:54:07.952Z,21.01
2016-10-19T12:55:07.929Z,21
2016-10-19T12:56:07.909Z,20.97